createdAt,value
2024-04-18T00:00:19.933Z,7.12
2024-04-18T00:01:19.890Z,7.18
2024-04-18T00:02:19.834Z,7.16
2024-04-18T00:03:19.897Z,7.11
2024-04-18T00:04:20.042Z,7.11
2024-04-18T00:05:19.878Z,7.05
2024-04-18T00:06:19.868Z,7.04
2024-04-18T00:07:19.807Z,6.96
2024-04-18T00:08:19.774Z,7.04
2024-04-18T00:09:19.788Z,7.08
2024-04-18T00:10:19.758Z,7.07
2024-04-18T00:11:19.778Z,7.14
2024-04-18T00:12:19.735Z,7.11
2024-04-18T00:13:19.760Z,7.14
2024-04-18T00:14:19.704Z,7.05
2024-04-18T00:15:19.705Z,6.96
2024-04-18T00:16:19.673Z,6.99
2024-04-18T00:17:19.788Z,6.96
2024-04-18T00:18:20.020Z,6.94
2024-04-18T00:19:19.734Z,6.93
2024-04-18T00:20:19.627Z,6.90
2024-04-18T00:21:19.648Z,6.89
2024-04-18T00:22:19.604Z,6.93
2024-04-18T00:23:19.599Z,7.04
2024-04-18T00:24:19.645Z,7.09
2024-04-18T00:25:19.603Z,7.09
2024-04-18T00:26:19.566Z,7.05
2024-04-18T00:27:19.598Z,7.12
2024-04-18T00:28:19.534Z,7.14
2024-04-18T00:29:19.582Z,7.18
2024-04-18T00:30:19.544Z,7.23
2024-04-18T00:31:19.506Z,7.27
2024-04-18T00:32:19.549Z,7.24
2024-04-18T00:33:19.548Z,7.11
2024-04-18T00:34:19.476Z,7.18
2024-04-18T00:35:19.496Z,7.18
2024-04-18T00:36:19.496Z,7.21
2024-04-18T00:37:19.437Z,7.19
2024-04-18T00:38:19.432Z,7.15
2024-04-18T00:39:19.455Z,7.11
2024-04-18T00:40:19.410Z,7.09
2024-04-18T00:41:19.442Z,7.11
2024-04-18T00:42:19.416Z,7.15
2024-04-18T00:43:19.373Z,7.23
2024-04-18T00:44:19.367Z,7.26
2024-04-18T00:45:19.386Z,7.19
2024-04-18T00:46:19.337Z,7.21
2024-04-18T00:47:19.356Z,7.23
2024-04-18T00:48:19.412Z,7.21
2024-04-18T00:49:19.356Z,7.18
2024-04-18T00:50:19.312Z,7.09
2024-04-18T00:51:19.331Z,7.07
2024-04-18T00:52:19.317Z,7.00
2024-04-18T00:53:19.258Z,7.09
2024-04-18T00:54:19.282Z,7.15
2024-04-18T00:55:19.244Z,7.19
2024-04-18T00:56:19.246Z,7.19
2024-04-18T00:57:19.405Z,7.24
2024-04-18T00:58:19.252Z,7.26
2024-04-18T00:59:19.185Z,7.30
2024-04-18T01:00:19.232Z,7.32
2024-04-18T01:01:19.244Z,7.34
2024-04-18T01:02:19.163Z,7.37
2024-04-18T01:03:19.255Z,7.36
2024-04-18T01:04:19.252Z,7.30
2024-04-18T01:05:19.162Z,7.33
2024-04-18T01:06:19.133Z,7.36
2024-04-18T01:07:19.121Z,7.33
2024-04-18T01:08:19.091Z,7.36
2024-04-18T01:09:19.157Z,7.33
2024-04-18T01:10:19.072Z,7.23
2024-04-18T01:11:19.098Z,7.15
2024-04-18T01:12:19.099Z,7.16
2024-04-18T01:13:19.027Z,7.21
2024-04-18T01:14:19.035Z,7.23
2024-04-18T01:15:19.030Z,7.24
2024-04-18T01:16:19.003Z,7.26
2024-04-18T01:17:19.014Z,7.26
2024-04-18T01:18:18.996Z,7.30
2024-04-18T01:19:18.978Z,7.33
2024-04-18T01:20:18.972Z,7.32
2024-04-18T01:21:18.989Z,7.23
2024-04-18T01:22:18.964Z,7.19
2024-04-18T01:23:18.934Z,7.09
2024-04-18T01:24:18.962Z,7.15
2024-04-18T01:25:18.935Z,7.11
2024-04-18T01:26:18.938Z,7.12
2024-04-18T01:27:18.951Z,7.16
2024-04-18T01:28:18.862Z,7.21
2024-04-18T01:29:18.868Z,7.21
2024-04-18T01:30:18.896Z,7.16
2024-04-18T01:31:18.834Z,7.04
2024-04-18T01:32:18.811Z,7.00
2024-04-18T01:33:18.924Z,6.93
2024-04-18T01:34:18.898Z,6.94
2024-04-18T01:35:18.779Z,6.99
2024-04-18T01:36:18.862Z,6.94
2024-04-18T01:37:18.756Z,7.00
2024-04-18T01:38:18.756Z,7.04
2024-04-18T01:39:18.764Z,7.05
2024-04-18T01:40:18.906Z,6.94
2024-04-18T01:41:18.726Z,6.89
2024-04-18T01:42:18.752Z,6.94
2024-04-18T01:43:18.748Z,6.99
2024-04-18T01:44:18.667Z,7.00
2024-04-18T01:45:18.710Z,7.04
2024-04-18T01:46:18.653Z,7.07
2024-04-18T01:47:18.714Z,7.05
2024-04-18T01:48:18.819Z,7.05
2024-04-18T01:49:18.666Z,7.09
2024-04-18T01:50:18.611Z,7.08
2024-04-18T01:51:18.644Z,7.08
2024-04-18T01:52:18.616Z,7.01
2024-04-18T01:53:18.598Z,6.99
2024-04-18T01:54:18.581Z,7.00
2024-04-18T01:55:18.573Z,6.90
2024-04-18T01:56:18.548Z,6.91
2024-04-18T01:57:18.564Z,6.90
2024-04-18T01:58:18.531Z,6.87
2024-04-18T01:59:18.529Z,6.91
2024-04-18T02:00:18.612Z,6.93
2024-04-18T02:01:18.492Z,6.91
2024-04-18T02:02:18.472Z,6.83
2024-04-18T02:03:18.525Z,6.87
2024-04-18T02:04:18.619Z,6.89
2024-04-18T02:05:18.446Z,6.86
2024-04-18T02:06:18.468Z,6.86
2024-04-18T02:07:18.416Z,6.78
2024-04-18T02:08:18.415Z,6.78
2024-04-18T02:09:18.454Z,6.82
2024-04-18T02:10:18.390Z,6.78
2024-04-18T02:11:18.450Z,6.83
2024-04-18T02:12:18.395Z,6.78
2024-04-18T02:13:18.352Z,6.68
2024-04-18T02:14:18.352Z,6.65
2024-04-18T02:15:18.345Z,6.69
2024-04-18T02:16:18.314Z,6.61
2024-04-18T02:17:18.324Z,6.68
2024-04-18T02:18:18.341Z,6.61
2024-04-18T02:19:18.286Z,6.61
2024-04-18T02:20:18.284Z,6.64
2024-04-18T02:21:18.303Z,6.61
2024-04-18T02:22:18.262Z,6.61
2024-04-18T02:23:18.244Z,6.57
2024-04-18T02:24:18.250Z,6.54
2024-04-18T02:25:18.232Z,6.53
2024-04-18T02:26:18.199Z,6.51
2024-04-18T02:27:18.242Z,6.55
2024-04-18T02:28:18.188Z,6.58
2024-04-18T02:29:18.172Z,6.55
2024-04-18T02:30:18.239Z,6.48
2024-04-18T02:31:18.147Z,6.43
2024-04-18T02:32:18.195Z,6.40
2024-04-18T02:33:18.330Z,6.45
2024-04-18T02:34:18.095Z,6.43
2024-04-18T02:35:18.101Z,6.46
2024-04-18T02:36:18.111Z,6.48
2024-04-18T02:37:18.069Z,6.46
2024-04-18T02:38:18.072Z,6.42
2024-04-18T02:39:18.109Z,6.39
2024-04-18T02:40:18.034Z,6.39
2024-04-18T02:41:18.056Z,6.35
2024-04-18T02:42:18.073Z,6.33
2024-04-18T02:43:18.009Z,6.36
2024-04-18T02:44:17.989Z,6.32
2024-04-18T02:45:18.044Z,6.27
2024-04-18T02:46:17.985Z,6.32
2024-04-18T02:47:17.998Z,6.30
2024-04-18T02:48:18.012Z,6.33
2024-04-18T02:49:17.952Z,6.25
2024-04-18T02:50:17.932Z,6.32
2024-04-18T02:51:17.966Z,6.32
2024-04-18T02:52:17.928Z,6.33
2024-04-18T02:53:17.897Z,6.32
2024-04-18T02:54:17.894Z,6.28
2024-04-18T02:55:17.908Z,6.24
2024-04-18T02:56:17.881Z,6.25
2024-04-18T02:57:17.920Z,6.25
2024-04-18T02:58:17.851Z,6.24
2024-04-18T02:59:17.862Z,6.25
2024-04-18T03:00:17.914Z,6.19
2024-04-18T03:01:17.994Z,6.21
2024-04-18T03:02:17.816Z,6.03
2024-04-18T03:03:17.834Z,6.06
2024-04-18T03:04:17.821Z,6.13
2024-04-18T03:05:17.774Z,6.10
2024-04-18T03:06:17.805Z,5.98
2024-04-18T03:07:17.738Z,5.96
2024-04-18T03:08:17.739Z,5.96
2024-04-18T03:09:17.735Z,5.98
2024-04-18T03:10:18.450Z,5.96
2024-04-18T03:11:17.753Z,5.98
2024-04-18T03:12:17.691Z,5.95
2024-04-18T03:13:17.688Z,5.93
2024-04-18T03:14:17.687Z,5.84
2024-04-18T03:15:17.706Z,5.88
2024-04-18T03:16:17.638Z,5.88
2024-04-18T03:17:17.683Z,5.87
2024-04-18T03:18:17.716Z,5.87
2024-04-18T03:19:17.658Z,5.81
2024-04-18T03:20:17.588Z,5.84
2024-04-18T03:21:17.599Z,5.83
2024-04-18T03:22:17.570Z,5.88
2024-04-18T03:23:17.562Z,5.83
2024-04-18T03:24:17.576Z,5.78
2024-04-18T03:25:17.531Z,5.75
2024-04-18T03:26:17.556Z,5.67
2024-04-18T03:27:17.557Z,5.70
2024-04-18T03:28:17.501Z,5.70
2024-04-18T03:29:17.504Z,5.73
2024-04-18T03:30:17.501Z,5.80
2024-04-18T03:31:17.456Z,5.83
2024-04-18T03:32:17.519Z,5.85
2024-04-18T03:33:17.564Z,5.69
2024-04-18T03:34:17.459Z,5.66
2024-04-18T03:35:17.419Z,5.69
2024-04-18T03:36:17.456Z,5.67
2024-04-18T03:37:17.512Z,5.69
2024-04-18T03:38:17.390Z,5.73
2024-04-18T03:39:17.455Z,5.67
2024-04-18T03:40:17.392Z,5.73
2024-04-18T03:41:17.386Z,5.70
2024-04-18T03:42:17.356Z,5.67
2024-04-18T03:43:17.338Z,5.63
2024-04-18T03:44:17.347Z,5.60
2024-04-18T03:45:17.342Z,5.63
2024-04-18T03:46:18.018Z,5.69
2024-04-18T03:47:17.314Z,5.70
2024-04-18T03:48:17.386Z,5.66
2024-04-18T03:49:17.280Z,5.70
2024-04-18T03:50:17.282Z,5.73
2024-04-18T03:51:17.248Z,5.67
2024-04-18T03:52:17.230Z,5.62
2024-04-18T03:53:17.206Z,5.69
2024-04-18T03:54:17.240Z,5.74
2024-04-18T03:55:17.293Z,5.70
2024-04-18T03:56:17.185Z,5.73
2024-04-18T03:57:17.193Z,5.65
2024-04-18T03:58:17.177Z,5.56
2024-04-18T03:59:17.165Z,5.55
2024-04-18T04:00:17.191Z,5.55
2024-04-18T04:01:17.302Z,5.63
2024-04-18T04:02:17.137Z,5.63
2024-04-18T04:03:17.280Z,5.66
2024-04-18T04:04:17.240Z,5.69
2024-04-18T04:05:17.075Z,5.66
2024-04-18T04:06:17.130Z,5.66
2024-04-18T04:07:17.069Z,5.60
2024-04-18T04:08:17.074Z,5.60
2024-04-18T04:09:17.063Z,5.67
2024-04-18T04:10:17.018Z,5.70
2024-04-18T04:11:17.122Z,5.66
2024-04-18T04:12:17.042Z,5.66
2024-04-18T04:13:17.001Z,5.56
2024-04-18T04:14:16.985Z,5.51
2024-04-18T04:15:16.993Z,5.55
2024-04-18T04:16:16.970Z,5.48
2024-04-18T04:17:16.965Z,5.48
2024-04-18T04:18:16.991Z,5.52
2024-04-18T04:19:16.990Z,5.51
2024-04-18T04:20:16.915Z,5.52
2024-04-18T04:21:16.954Z,5.58
2024-04-18T04:22:16.922Z,5.60
2024-04-18T04:23:16.875Z,5.58
2024-04-18T04:24:16.946Z,5.55
2024-04-18T04:25:16.856Z,5.55
2024-04-18T04:26:16.865Z,5.56
2024-04-18T04:27:16.958Z,5.60
2024-04-18T04:28:16.855Z,5.45
2024-04-18T04:29:16.793Z,5.41
2024-04-18T04:30:16.875Z,5.41
2024-04-18T04:31:16.782Z,5.40
2024-04-18T04:32:16.879Z,5.35
2024-04-18T04:33:16.867Z,5.41
2024-04-18T04:34:16.816Z,5.38
2024-04-18T04:35:16.776Z,5.37
2024-04-18T04:36:16.743Z,5.27
2024-04-18T04:37:16.890Z,5.33
2024-04-18T04:38:16.727Z,5.40
2024-04-18T04:39:16.754Z,5.38
2024-04-18T04:40:16.688Z,5.32
2024-04-18T04:41:16.682Z,5.32
2024-04-18T04:42:16.807Z,5.35
2024-04-18T04:43:16.711Z,5.40
2024-04-18T04:44:16.660Z,5.45
2024-04-18T04:45:16.754Z,5.42
2024-04-18T04:46:16.650Z,5.33
2024-04-18T04:47:16.640Z,5.33
2024-04-18T04:48:16.694Z,5.41
2024-04-18T04:49:16.727Z,5.38
2024-04-18T04:50:16.605Z,5.40
2024-04-18T04:51:16.601Z,5.41
2024-04-18T04:52:16.551Z,5.37
2024-04-18T04:53:16.571Z,5.35
2024-04-18T04:54:16.541Z,5.44
2024-04-18T04:55:16.634Z,5.47
2024-04-18T04:56:16.512Z,5.52
2024-04-18T04:57:16.566Z,5.52
2024-04-18T04:58:16.479Z,5.55
2024-04-18T04:59:16.479Z,5.52
2024-04-18T05:00:16.498Z,5.44
2024-04-18T05:01:16.473Z,5.44
2024-04-18T05:02:16.486Z,5.41
2024-04-18T05:03:16.482Z,5.41
2024-04-18T05:04:16.431Z,5.37
2024-04-18T05:05:16.439Z,5.45
2024-04-18T05:06:16.415Z,5.42
2024-04-18T05:07:16.391Z,5.52
2024-04-18T05:08:16.385Z,5.49
2024-04-18T05:09:16.370Z,5.42
2024-04-18T05:10:16.381Z,5.49
2024-04-18T05:11:16.356Z,5.56
2024-04-18T05:12:16.361Z,5.66
2024-04-18T05:13:16.311Z,5.69
2024-04-18T05:14:16.323Z,5.65
2024-04-18T05:15:16.331Z,5.75
2024-04-18T05:16:16.301Z,5.83
2024-04-18T05:17:16.274Z,5.81
2024-04-18T05:18:16.350Z,5.67
2024-04-18T05:19:16.246Z,5.77
2024-04-18T05:20:16.261Z,5.73
2024-04-18T05:21:16.281Z,5.77
2024-04-18T05:22:16.226Z,5.80
2024-04-18T05:23:16.213Z,5.78
2024-04-18T05:24:16.235Z,5.80
2024-04-18T05:25:16.189Z,5.78
2024-04-18T05:26:16.231Z,5.87
2024-04-18T05:27:16.195Z,5.78
2024-04-18T05:28:16.146Z,5.73
2024-04-18T05:29:16.132Z,5.81
2024-04-18T05:30:16.233Z,5.87
2024-04-18T05:31:16.123Z,5.77
2024-04-18T05:32:16.112Z,5.78
2024-04-18T05:33:16.109Z,5.81
2024-04-18T05:34:16.083Z,5.80
2024-04-18T05:35:16.079Z,5.84
2024-04-18T05:36:16.085Z,5.93
2024-04-18T05:37:16.989Z,5.98
2024-04-18T05:38:16.056Z,6.05
2024-04-18T05:39:16.066Z,6.05
2024-04-18T05:40:16.021Z,6.13
2024-04-18T05:41:16.027Z,6.19
2024-04-18T05:42:15.989Z,6.14
2024-04-18T05:43:15.988Z,6.08
2024-04-18T05:44:15.968Z,6.10
2024-04-18T05:45:15.969Z,6.17
2024-04-18T05:46:15.995Z,6.13
2024-04-18T05:47:16.018Z,6.13
2024-04-18T05:48:15.923Z,6.14
2024-04-18T05:49:15.929Z,6.10
2024-04-18T05:50:15.910Z,6.06
2024-04-18T05:51:15.892Z,6.02
2024-04-18T05:52:15.900Z,6.05
2024-04-18T05:53:15.870Z,5.96
2024-04-18T05:54:15.855Z,6.05
2024-04-18T05:55:15.851Z,6.10
2024-04-18T05:56:15.847Z,6.20
2024-04-18T05:57:15.854Z,6.28
2024-04-18T05:58:15.809Z,6.30
2024-04-18T05:59:15.797Z,6.32
2024-04-18T06:00:15.800Z,6.42
2024-04-18T06:01:15.920Z,6.39
2024-04-18T06:02:15.802Z,6.40
2024-04-18T06:03:15.738Z,6.46
2024-04-18T06:04:15.771Z,6.40
2024-04-18T06:05:15.759Z,6.43
2024-04-18T06:06:15.842Z,6.30
2024-04-18T06:07:15.723Z,6.32
2024-04-18T06:08:15.696Z,6.38
2024-04-18T06:09:15.688Z,6.48
2024-04-18T06:10:15.687Z,6.53
2024-04-18T06:11:15.705Z,6.61
2024-04-18T06:12:15.675Z,6.72
2024-04-18T06:13:15.641Z,6.81
2024-04-18T06:14:15.633Z,6.87
2024-04-18T06:15:15.609Z,6.86
2024-04-18T06:16:15.648Z,6.61
2024-04-18T06:17:15.638Z,6.69
2024-04-18T06:18:15.590Z,6.76
2024-04-18T06:19:15.595Z,6.81
2024-04-18T06:20:15.567Z,6.72
2024-04-18T06:21:15.624Z,6.75
2024-04-18T06:22:15.630Z,6.61
2024-04-18T06:23:15.556Z,6.60
2024-04-18T06:24:15.528Z,6.60
2024-04-18T06:25:15.585Z,6.71
2024-04-18T06:26:15.527Z,6.82
2024-04-18T06:27:15.468Z,6.83
2024-04-18T06:28:15.531Z,6.76
2024-04-18T06:29:15.536Z,6.76
2024-04-18T06:30:15.461Z,6.73
2024-04-18T06:31:15.496Z,6.72
2024-04-18T06:32:15.419Z,6.82
2024-04-18T06:33:15.544Z,6.87
2024-04-18T06:34:15.418Z,7.05
2024-04-18T06:35:15.393Z,7.01
2024-04-18T06:36:15.433Z,7.15
2024-04-18T06:37:15.391Z,7.14
2024-04-18T06:38:15.369Z,7.05
2024-04-18T06:39:15.414Z,7.09
2024-04-18T06:40:15.336Z,7.08
2024-04-18T06:41:15.344Z,7.11
2024-04-18T06:42:15.320Z,7.11
2024-04-18T06:43:15.315Z,7.19
2024-04-18T06:44:15.300Z,7.29
2024-04-18T06:45:15.268Z,7.32
2024-04-18T06:46:15.257Z,7.33
2024-04-18T06:47:15.274Z,7.58
2024-04-18T06:48:15.349Z,7.76
2024-04-18T06:49:15.237Z,7.89
2024-04-18T06:50:15.235Z,8.07
2024-04-18T06:51:15.201Z,8.27
2024-04-18T06:52:15.199Z,8.18
2024-04-18T06:53:15.200Z,8.21
2024-04-18T06:54:15.199Z,8.13
2024-04-18T06:55:15.165Z,8.02
2024-04-18T06:56:15.150Z,7.95
2024-04-18T06:57:15.129Z,7.92
2024-04-18T06:58:15.135Z,8.06
2024-04-18T06:59:15.139Z,8.20
2024-04-18T07:00:15.099Z,8.34
2024-04-18T07:01:15.293Z,8.47
2024-04-18T07:02:15.077Z,8.49
2024-04-18T07:03:15.195Z,8.47
2024-04-18T07:04:15.180Z,8.57
2024-04-18T07:05:15.102Z,8.63
2024-04-18T07:06:15.035Z,8.65
2024-04-18T07:07:15.028Z,8.80
2024-04-18T07:08:15.062Z,8.79
2024-04-18T07:09:15.010Z,8.79
2024-04-18T07:10:14.999Z,8.82
2024-04-18T07:11:15.019Z,8.78
2024-04-18T07:12:14.967Z,8.88
2024-04-18T07:13:14.965Z,9.01
2024-04-18T07:14:14.971Z,9.26
2024-04-18T07:15:14.944Z,9.16
2024-04-18T07:16:14.952Z,9.35
2024-04-18T07:17:14.916Z,9.41
2024-04-18T07:18:14.967Z,9.50
2024-04-18T07:19:15.015Z,9.52
2024-04-18T07:20:14.874Z,9.62
2024-04-18T07:21:14.866Z,9.55
2024-04-18T07:22:14.891Z,9.40
2024-04-18T07:23:14.842Z,9.38
2024-04-18T07:24:14.865Z,9.37
2024-04-18T07:25:14.827Z,9.50
2024-04-18T07:26:14.827Z,9.56
2024-04-18T07:27:14.817Z,9.55
2024-04-18T07:28:14.796Z,9.78
2024-04-18T07:29:14.781Z,9.83
2024-04-18T07:30:14.796Z,9.60
2024-04-18T07:31:14.753Z,9.53
2024-04-18T07:32:14.739Z,9.59
2024-04-18T07:33:14.921Z,9.75
2024-04-18T07:34:14.787Z,9.93
2024-04-18T07:35:14.744Z,9.98
2024-04-18T07:36:14.754Z,9.96
2024-04-18T07:37:14.689Z,10.10
2024-04-18T07:38:14.676Z,10.16
2024-04-18T07:39:14.662Z,9.85
2024-04-18T07:40:14.661Z,9.78
2024-04-18T07:41:14.641Z,9.71
2024-04-18T07:42:14.620Z,9.68
2024-04-18T07:43:14.600Z,9.70
2024-04-18T07:44:14.612Z,9.91
2024-04-18T07:45:14.614Z,10.16
2024-04-18T07:46:14.620Z,10.36
2024-04-18T07:47:14.619Z,10.39
2024-04-18T07:48:14.617Z,10.55
2024-04-18T07:49:14.586Z,10.62
2024-04-18T07:50:14.564Z,10.52
2024-04-18T07:51:14.510Z,10.32
2024-04-18T07:52:17.239Z,10.24
2024-04-18T07:53:14.515Z,10.32
2024-04-18T07:54:14.495Z,10.35
2024-04-18T07:55:14.482Z,10.25
2024-04-18T07:56:14.919Z,10.35
2024-04-18T07:57:15.157Z,10.39
2024-04-18T07:58:14.890Z,10.55
2024-04-18T07:59:15.256Z,10.60
2024-04-18T08:00:15.296Z,10.52
2024-04-18T08:01:15.740Z,10.43
2024-04-18T08:02:15.800Z,10.58
2024-04-18T08:03:15.961Z,10.70
2024-04-18T08:05:16.173Z,10.76
2024-04-18T08:06:16.229Z,10.63
2024-04-18T08:07:17.129Z,10.54
2024-04-18T08:08:16.335Z,10.68
2024-04-18T08:09:17.304Z,10.88
2024-04-18T08:10:17.990Z,11.13
2024-04-18T08:12:24.174Z,11.01
2024-04-18T08:13:17.687Z,10.99
2024-04-18T08:14:17.200Z,10.94
2024-04-18T08:15:17.691Z,11.12
2024-04-18T08:16:15.588Z,11.27
2024-04-18T08:17:14.349Z,11.46
2024-04-18T08:18:14.225Z,11.59
2024-04-18T08:19:14.211Z,11.74
2024-04-18T08:20:14.188Z,11.97
2024-04-18T08:21:14.227Z,12.03
2024-04-18T08:22:14.172Z,11.74
2024-04-18T08:23:14.360Z,11.59
2024-04-18T08:24:14.187Z,11.45
2024-04-18T08:25:14.204Z,11.74
2024-04-18T08:26:14.147Z,11.90
2024-04-18T08:27:14.151Z,12.12
2024-04-18T08:28:14.129Z,12.12
2024-04-18T08:29:14.097Z,11.87
2024-04-18T08:30:14.105Z,11.98
2024-04-18T08:31:14.091Z,11.88
2024-04-18T08:32:14.074Z,11.75
2024-04-18T08:33:14.274Z,11.69
2024-04-18T08:34:18.077Z,11.63
2024-04-18T08:35:14.027Z,11.44
2024-04-18T08:36:14.104Z,11.19
2024-04-18T08:37:14.003Z,11.03
2024-04-18T08:38:13.984Z,10.87
2024-04-18T08:39:13.976Z,11.24
2024-04-18T08:40:13.969Z,11.42
2024-04-18T08:41:13.980Z,11.69
2024-04-18T08:42:14.095Z,11.53
2024-04-18T08:43:13.932Z,11.62
2024-04-18T08:44:13.938Z,11.87
2024-04-18T08:45:13.919Z,12.05
2024-04-18T08:46:13.916Z,12.21
2024-04-18T08:47:13.958Z,12.07
2024-04-18T08:48:13.994Z,12.01
2024-04-18T08:49:13.933Z,11.90
2024-04-18T08:50:13.859Z,11.96
2024-04-18T08:51:13.869Z,11.75
2024-04-18T08:52:13.862Z,11.60
2024-04-18T08:53:13.826Z,11.46
2024-04-18T08:54:13.846Z,11.41
2024-04-18T08:55:13.815Z,11.38
2024-04-18T08:56:13.787Z,11.41
2024-04-18T08:57:13.767Z,11.24
2024-04-18T08:58:13.775Z,11.17
2024-04-18T08:59:13.915Z,11.09
2024-04-18T09:00:13.813Z,11.20
2024-04-18T09:01:13.748Z,11.12
2024-04-18T09:02:13.794Z,11.24
2024-04-18T09:03:13.751Z,11.33
2024-04-18T09:04:13.723Z,11.48
2024-04-18T09:05:13.750Z,11.67
2024-04-18T09:06:13.716Z,11.75
2024-04-18T09:07:13.663Z,11.48
2024-04-18T09:08:13.654Z,11.44
2024-04-18T09:09:13.660Z,11.44
2024-04-18T09:10:13.762Z,11.45
2024-04-18T09:11:13.649Z,11.41
2024-04-18T09:12:13.610Z,11.48
2024-04-18T09:13:13.600Z,11.74
2024-04-18T09:14:13.568Z,11.85
2024-04-18T09:15:13.601Z,11.78
2024-04-18T09:16:13.596Z,11.75
2024-04-18T09:17:13.556Z,11.72
2024-04-18T09:18:13.666Z,11.62
2024-04-18T09:19:14.347Z,11.66
2024-04-18T09:20:13.517Z,11.77
2024-04-18T09:21:13.539Z,11.60
2024-04-18T09:22:13.505Z,11.64
2024-04-18T09:23:13.486Z,11.97
2024-04-18T09:24:13.518Z,12.25
2024-04-18T09:25:13.484Z,12.61
2024-04-18T09:26:13.444Z,12.71
2024-04-18T09:27:13.490Z,12.79
2024-04-18T09:28:13.422Z,12.94
2024-04-18T09:29:13.427Z,13.28
2024-04-18T09:30:13.471Z,13.38
2024-04-18T09:31:15.398Z,13.44
2024-04-18T09:32:13.414Z,13.62
2024-04-18T09:33:13.633Z,13.59
2024-04-18T09:34:13.383Z,13.36
2024-04-18T09:35:13.346Z,13.31
2024-04-18T09:36:13.353Z,13.44
2024-04-18T09:37:13.321Z,13.10
2024-04-18T09:38:13.329Z,13.03
2024-04-18T09:39:13.842Z,13.01
2024-04-18T09:40:13.287Z,13.24
2024-04-18T09:41:13.285Z,13.35
2024-04-18T09:42:13.300Z,13.63
2024-04-18T09:43:13.284Z,13.93
2024-04-18T09:44:13.248Z,14.06
2024-04-18T09:45:13.246Z,13.96
2024-04-18T09:46:13.238Z,13.65
2024-04-18T09:47:13.223Z,13.62
2024-04-18T09:48:13.408Z,13.16
2024-04-18T09:49:13.532Z,12.66
2024-04-18T09:50:13.187Z,12.34
2024-04-18T09:51:13.212Z,12.23
2024-04-18T09:52:13.172Z,12.54
2024-04-18T09:53:13.139Z,12.55
2024-04-18T09:54:13.154Z,12.77
2024-04-18T09:55:13.116Z,12.71
2024-04-18T09:56:13.190Z,12.80
2024-04-18T09:57:13.108Z,13.06
2024-04-18T09:58:13.152Z,13.36
2024-04-18T09:59:13.108Z,13.10
2024-04-18T10:00:13.233Z,13.14
2024-04-18T10:01:13.190Z,13.21
2024-04-18T10:02:13.175Z,13.16
2024-04-18T10:03:13.152Z,13.35
2024-04-18T10:04:13.299Z,13.72
2024-04-18T10:05:13.048Z,14.04
2024-04-18T10:06:13.043Z,13.81
2024-04-18T10:07:13.481Z,13.61
2024-04-18T10:08:13.039Z,13.66
2024-04-18T10:09:13.015Z,13.81
2024-04-18T10:10:12.962Z,13.84
2024-04-18T10:11:13.045Z,13.91
2024-04-18T10:12:12.984Z,14.21
2024-04-18T10:13:13.826Z,14.16
2024-04-18T10:14:13.028Z,14.01
2024-04-18T10:15:13.988Z,13.83
2024-04-18T10:16:12.931Z,13.44
2024-04-18T10:17:12.914Z,12.99
2024-04-18T10:18:13.115Z,12.76
2024-04-18T10:19:13.137Z,12.73
2024-04-18T10:20:12.845Z,13.09
2024-04-18T10:21:12.951Z,13.38
2024-04-18T10:22:23.479Z,13.61
2024-04-18T10:23:12.874Z,13.87
2024-04-18T10:24:12.904Z,14.11
2024-04-18T10:25:12.817Z,14.26
2024-04-18T10:26:12.809Z,14.35
2024-04-18T10:27:12.842Z,14.24
2024-04-18T10:28:12.801Z,14.23
2024-04-18T10:29:12.826Z,14.59
2024-04-18T10:30:12.770Z,14.71
2024-04-18T10:31:12.795Z,14.59
2024-04-18T10:32:12.786Z,14.56
2024-04-18T10:33:12.815Z,14.41
2024-04-18T10:34:12.734Z,14.54
2024-04-18T10:35:12.688Z,14.71
2024-04-18T10:36:12.696Z,15.00
2024-04-18T10:37:12.682Z,14.63
2024-04-18T10:38:12.676Z,14.49
2024-04-18T10:39:12.741Z,14.53
2024-04-18T10:40:12.677Z,14.42
2024-04-18T10:41:12.651Z,14.59
2024-04-18T10:42:12.641Z,14.34
2024-04-18T10:43:14.356Z,14.36
2024-04-18T10:44:12.593Z,14.23
2024-04-18T10:45:12.677Z,14.19
2024-04-18T10:46:12.570Z,14.46
2024-04-18T10:47:12.578Z,14.59
2024-04-18T10:48:12.807Z,14.63
2024-04-18T10:49:12.708Z,14.74
2024-04-18T10:50:12.534Z,14.75
2024-04-18T10:51:12.535Z,14.95
2024-04-18T10:52:12.600Z,15.11
2024-04-18T10:53:12.498Z,15.18
2024-04-18T10:54:12.523Z,15.38
2024-04-18T10:55:12.504Z,15.25
2024-04-18T10:56:12.456Z,15.00
2024-04-18T10:57:12.515Z,14.86
2024-04-18T10:58:12.432Z,14.97
2024-04-18T10:59:12.485Z,14.91
2024-04-18T11:00:12.464Z,14.63
2024-04-18T11:01:12.418Z,14.27
2024-04-18T11:02:12.464Z,13.71
2024-04-18T11:03:12.503Z,13.41
2024-04-18T11:04:12.478Z,13.76
2024-04-18T11:05:12.413Z,14.17
2024-04-18T11:06:12.376Z,14.38
2024-04-18T11:07:12.445Z,14.56
2024-04-18T11:08:12.311Z,14.56
2024-04-18T11:09:12.445Z,14.69
2024-04-18T11:10:12.284Z,14.93
2024-04-18T11:11:12.294Z,15.18
2024-04-18T11:12:12.271Z,15.48
2024-04-18T11:13:12.298Z,15.74
2024-04-18T11:14:13.681Z,15.86
2024-04-18T11:15:12.352Z,15.92
2024-04-18T11:16:12.220Z,15.84
2024-04-18T11:17:12.222Z,16.06
2024-04-18T11:18:12.322Z,15.98
2024-04-18T11:19:12.643Z,15.98
2024-04-18T11:20:12.167Z,15.67
2024-04-18T11:21:12.161Z,15.35
2024-04-18T11:22:12.172Z,15.40
2024-04-18T11:23:15.531Z,15.16
2024-04-18T11:24:12.190Z,15.04
2024-04-18T11:25:12.175Z,15.01
2024-04-18T11:26:12.123Z,14.71
2024-04-18T11:27:12.137Z,14.42
2024-04-18T11:28:12.126Z,14.05
2024-04-18T11:29:12.527Z,14.21
2024-04-18T11:30:12.111Z,14.16
2024-04-18T11:31:12.064Z,14.11
2024-04-18T11:32:12.343Z,14.36
2024-04-18T11:33:12.295Z,14.29
2024-04-18T11:34:12.013Z,14.29
2024-04-18T11:35:17.063Z,14.27
2024-04-18T11:36:12.094Z,14.27
2024-04-18T11:37:12.018Z,14.26
2024-04-18T11:38:12.017Z,14.20
2024-04-18T11:39:12.073Z,14.46
2024-04-18T11:40:11.937Z,14.75
2024-04-18T11:41:11.981Z,15.07
2024-04-18T11:42:12.030Z,15.16
2024-04-18T11:43:11.917Z,15.16
2024-04-18T11:44:11.954Z,15.35
2024-04-18T11:45:11.968Z,15.68
2024-04-18T11:46:11.989Z,15.88
2024-04-18T11:47:11.862Z,15.93
2024-04-18T11:48:11.988Z,15.95
2024-04-18T11:49:11.962Z,15.68
2024-04-18T11:50:11.883Z,15.27
2024-04-18T11:51:11.915Z,15.13
2024-04-18T11:52:11.846Z,15.27
2024-04-18T11:53:11.804Z,15.52
2024-04-18T11:54:11.795Z,15.62
2024-04-18T11:55:11.822Z,15.33
2024-04-18T11:56:11.855Z,15.46
2024-04-18T11:57:11.790Z,15.55
2024-04-18T11:58:11.764Z,15.43
2024-04-18T11:59:11.775Z,15.15
2024-04-18T12:00:11.764Z,15.07
2024-04-18T12:01:11.769Z,15.04
2024-04-18T12:02:11.756Z,15.04
2024-04-18T12:03:11.758Z,15.04
2024-04-18T12:04:11.870Z,14.80
2024-04-18T12:05:11.789Z,15.00
2024-04-18T12:06:11.821Z,15.09
2024-04-18T12:07:11.675Z,15.05
2024-04-18T12:08:11.666Z,15.11
2024-04-18T12:09:11.663Z,14.94
2024-04-18T12:10:11.607Z,14.75
2024-04-18T12:11:11.689Z,14.66
2024-04-18T12:12:11.759Z,14.82
2024-04-18T12:13:11.610Z,14.94
2024-04-18T12:14:11.597Z,14.91
2024-04-18T12:15:11.590Z,14.79
2024-04-18T12:16:11.576Z,14.83
2024-04-18T12:17:11.542Z,14.61
2024-04-18T12:18:11.547Z,14.45
2024-04-18T12:19:11.489Z,14.30
2024-04-18T12:20:11.480Z,14.44
2024-04-18T12:21:11.502Z,14.56
2024-04-18T12:22:11.473Z,14.69
2024-04-18T12:23:11.476Z,14.56
2024-04-18T12:24:11.513Z,14.60
2024-04-18T12:25:11.434Z,14.61
2024-04-18T12:26:11.455Z,14.75
2024-04-18T12:27:11.408Z,14.87
2024-04-18T12:28:11.413Z,15.01
2024-04-18T12:29:11.382Z,14.95
2024-04-18T12:30:11.389Z,14.91
2024-04-18T12:31:11.339Z,15.04
2024-04-18T12:32:11.364Z,15.13
2024-04-18T12:33:11.426Z,15.30
2024-04-18T12:34:11.318Z,15.46
2024-04-18T12:35:11.339Z,15.58
2024-04-18T12:36:11.306Z,15.53
2024-04-18T12:37:11.280Z,15.44
2024-04-18T12:38:11.267Z,15.43
2024-04-18T12:39:11.950Z,15.73
2024-04-18T12:40:11.271Z,15.92
2024-04-18T12:41:11.234Z,16.10
2024-04-18T12:42:11.280Z,16.14
2024-04-18T12:43:11.222Z,16.13
2024-04-18T12:44:11.233Z,15.93
2024-04-18T12:45:11.244Z,15.68
2024-04-18T12:46:17.878Z,15.59
2024-04-18T12:47:11.218Z,15.49
2024-04-18T12:48:11.334Z,15.35
2024-04-18T12:49:11.409Z,15.25
2024-04-18T12:50:11.227Z,15.27
2024-04-18T12:51:11.163Z,15.28
2024-04-18T12:52:11.118Z,15.12
2024-04-18T12:53:11.123Z,14.85
2024-04-18T12:54:11.141Z,14.39
2024-04-18T12:55:11.094Z,14.38
2024-04-18T12:56:11.067Z,14.35
2024-04-18T12:57:11.094Z,14.35
2024-04-18T12:58:11.067Z,14.45
2024-04-18T12:59:11.055Z,14.44
2024-04-18T13:00:11.049Z,14.39
2024-04-18T13:01:11.121Z,14.57
2024-04-18T13:02:10.998Z,14.57
2024-04-18T13:03:11.026Z,14.63
2024-04-18T13:04:11.033Z,14.46
2024-04-18T13:05:11.041Z,14.63
2024-04-18T13:06:10.979Z,14.59
2024-04-18T13:07:10.939Z,14.67
2024-04-18T13:08:10.949Z,14.79
2024-04-18T13:09:10.927Z,14.87